Time;durP1;ratioP1;P1;durP2;ratioP2;P2;SDS_P1;SDS_P2;PMS_P1;PMS_P2;Temp;Humidity;BMP_temperature;BMP_pressure;BME280_temperature;BME280_humidity;BME280_pressure;Samples;Min_cycle;Max_cycle;Signal;HPM_P1;HPM_P2
2021/09/14 00:01:22;;;;;;;10.95;7.30;;;14.90;99.90;;;;;;5034550;28;37205;-81
2021/09/14 00:03:49;;;;;;;14.13;7.88;;;14.90;99.90;;;;;;5039245;28;39001;-83
2021/09/14 00:06:15;;;;;;;10.68;6.60;;;14.90;99.90;;;;;;5038949;28;39368;-81
2021/09/14 00:08:41;;;;;;;12.20;8.10;;;14.90;99.90;;;;;;5041608;28;37996;-81
2021/09/14 00:11:07;;;;;;;8.88;6.40;;;15.00;99.90;;;;;;5015797;28;36856;-81
2021/09/14 00:13:33;;;;;;;8.65;7.07;;;15.10;99.90;;;;;;5021519;28;40092;-81
2021/09/14 00:15:59;;;;;;;9.43;7.65;;;15.10;99.90;;;;;;5040584;28;38566;-81
2021/09/14 00:18:25;;;;;;;15.70;7.80;;;15.10;99.90;;;;;;5023955;28;38687;-81
2021/09/14 00:20:51;;;;;;;12.63;6.90;;;15.20;99.90;;;;;;5037678;28;37038;-81
2021/09/14 00:23:17;;;;;;;8.25;6.70;;;15.20;99.90;;;;;;5021721;28;39546;-80
2021/09/14 00:25:43;;;;;;;9.80;7.38;;;15.20;99.90;;;;;;5041431;28;38333;-81
2021/09/14 00:28:09;;;;;;;9.50;6.88;;;15.20;99.90;;;;;;5025180;28;38145;-81
2021/09/14 00:30:36;;;;;;;10.70;6.90;;;15.20;99.90;;;;;;5027061;28;37916;-81
2021/09/14 00:33:02;;;;;;;9.80;6.72;;;15.20;99.90;;;;;;5034191;28;37926;-82
2021/09/14 00:35:28;;;;;;;12.27;7.93;;;15.10;99.90;;;;;;5021649;28;47184;-81
2021/09/14 00:37:54;;;;;;;9.80;7.47;;;15.20;99.90;;;;;;5042061;28;36889;-81
2021/09/14 00:40:20;;;;;;;12.57;7.55;;;15.20;99.90;;;;;;5038823;28;36943;-81
2021/09/14 00:42:46;;;;;;;10.45;7.57;;;15.20;99.90;;;;;;5046612;28;38659;-82
2021/09/14 00:45:12;;;;;;;11.50;7.05;;;15.20;99.90;;;;;;5028896;28;39016;-81
2021/09/14 00:47:38;;;;;;;13.77;7.13;;;15.10;99.90;;;;;;5025049;28;38260;-81
2021/09/14 00:50:06;;;;;;;12.70;7.53;;;15.10;99.90;;;;;;5024359;28;38581;-81
2021/09/14 00:52:35;;;;;;;9.75;6.63;;;15.10;99.90;;;;;;5050836;28;39343;-81
2021/09/14 00:55:02;;;;;;;14.75;6.95;;;15.10;99.90;;;;;;5027954;28;36209;-83
2021/09/14 00:57:28;;;;;;;11.27;6.72;;;15.10;99.90;;;;;;5021435;28;45531;-81
2021/09/14 00:59:54;;;;;;;9.82;6.53;;;15.10;99.90;;;;;;5022850;28;37343;-81
2021/09/14 01:02:20;;;;;;;9.50;6.97;;;15.10;99.90;;;;;;5022885;28;41074;-81
2021/09/14 01:04:46;;;;;;;12.10;7.28;;;15.00;99.90;;;;;;5024292;28;38084;-81
2021/09/14 01:07:12;;;;;;;11.07;7.03;;;15.00;99.90;;;;;;5022783;28;38521;-81
2021/09/14 01:09:39;;;;;;;11.23;7.03;;;15.00;99.90;;;;;;5019762;28;38838;-81
2021/09/14 01:12:06;;;;;;;11.02;8.05;;;15.00;99.90;;;;;;5018294;28;37414;-81
2021/09/14 01:14:32;;;;;;;9.95;7.63;;;15.00;99.90;;;;;;5023851;28;39065;-81
2021/09/14 01:16:58;;;;;;;14.00;8.10;;;14.90;99.90;;;;;;5018629;28;38811;-81
2021/09/14 01:19:24;;;;;;;13.68;7.32;;;15.00;99.90;;;;;;5023359;28;37910;-81
2021/09/14 01:21:51;;;;;;;14.70;7.80;;;15.00;99.90;;;;;;5024721;28;36728;-81
2021/09/14 01:24:17;;;;;;;10.88;7.93;;;14.90;99.90;;;;;;5023758;28;38672;-82
2021/09/14 01:26:43;;;;;;;12.77;8.32;;;15.00;99.90;;;;;;5039891;28;39508;-81
2021/09/14 01:29:12;;;;;;;12.07;8.15;;;14.90;99.90;;;;;;5020130;28;37909;-81
2021/09/14 01:31:38;;;;;;;8.75;6.78;;;14.90;99.90;;;;;;5024319;28;37108;-81
2021/09/14 01:34:04;;;;;;;13.15;8.45;;;14.90;99.90;;;;;;5022279;28;39404;-81
2021/09/14 01:36:32;;;;;;;13.45;8.27;;;14.90;99.90;;;;;;5016492;28;38373;-81
2021/09/14 01:38:58;;;;;;;12.65;7.85;;;14.90;99.90;;;;;;5017609;28;36772;-82
2021/09/14 01:41:24;;;;;;;11.15;8.07;;;14.90;99.90;;;;;;5019183;28;39332;-81
2021/09/14 01:43:50;;;;;;;12.35;7.80;;;14.90;99.90;;;;;;5017789;28;37617;-81
2021/09/14 01:46:16;;;;;;;10.45;7.90;;;14.90;99.90;;;;;;5019894;28;37386;-81
2021/09/14 01:48:42;;;;;;;12.63;8.23;;;14.90;99.90;;;;;;5018226;28;36047;-82
2021/09/14 01:51:09;;;;;;;12.95;7.45;;;15.00;99.90;;;;;;5018983;28;38056;-82
2021/09/14 01:53:35;;;;;;;12.65;8.70;;;15.00;99.90;;;;;;5022463;28;38430;-80
2021/09/14 01:56:05;;;;;;;11.40;8.40;;;14.90;99.90;;;;;;5037493;28;37891;-79
2021/09/14 01:58:31;;;;;;;10.02;7.90;;;14.90;99.90;;;;;;5038243;28;37127;-81
2021/09/14 02:01:13;;;;;;;13.52;8.70;;;14.90;99.90;;;;;;5034453;28;38008;-81
2021/09/14 02:03:51;;;;;;;15.33;8.70;;;14.90;99.90;;;;;;5022535;28;47189;-79
2021/09/14 02:06:32;;;;;;;10.63;8.57;;;14.80;99.90;;;;;;5023850;28;37432;-82
2021/09/14 02:23:37;;;;;;;15.85;8.70;;;14.80;99.90;;;;;;5024417;28;37753;-82
2021/09/14 02:38:18;;;;;;;15.65;10.35;;;14.50;99.90;;;;;;5038641;28;40266;-79
2021/09/14 02:42:30;;;;;;;17.42;11.48;;;14.50;99.90;;;;;;5037746;28;37792;-79
2021/09/14 03:01:10;;;;;;;15.57;12.00;;;14.30;99.90;;;;;;5039014;28;39452;-79
2021/09/14 03:03:39;;;;;;;18.85;12.02;;;14.30;99.90;;;;;;5024394;28;36825;-79
2021/09/14 03:06:05;;;;;;;16.17;12.18;;;14.30;99.90;;;;;;5018570;28;37402;-78
2021/09/14 03:08:33;;;;;;;21.17;14.27;;;14.20;99.90;;;;;;5043174;28;38467;-79
2021/09/14 03:11:11;;;;;;;20.48;13.55;;;14.20;99.90;;;;;;5038363;28;39280;-79
2021/09/14 03:13:38;;;;;;;19.00;13.35;;;14.20;99.90;;;;;;5019083;28;47495;-79
2021/09/14 03:16:09;;;;;;;18.88;13.52;;;14.20;99.90;;;;;;5014985;28;38999;-79
2021/09/14 03:18:36;;;;;;;18.65;13.35;;;14.20;99.90;;;;;;5040770;28;40286;-79
2021/09/14 03:21:04;;;;;;;17.10;13.60;;;14.20;99.90;;;;;;5016246;28;37062;-78
2021/09/14 03:23:31;;;;;;;18.80;13.98;;;14.10;99.90;;;;;;5025753;28;36531;-79
2021/09/14 03:25:57;;;;;;;21.48;13.25;;;14.10;99.90;;;;;;5042372;28;39059;-79
2021/09/14 03:28:23;;;;;;;19.20;13.88;;;14.10;99.90;;;;;;5038969;28;39245;-79
2021/09/14 03:30:49;;;;;;;22.40;14.80;;;14.10;99.90;;;;;;5018284;28;37165;-79
2021/09/14 03:33:16;;;;;;;17.63;14.35;;;14.10;99.90;;;;;;5039186;28;37675;-79
2021/09/14 03:35:43;;;;;;;26.15;14.57;;;14.10;99.90;;;;;;5037520;28;37238;-79
2021/09/14 03:38:09;;;;;;;22.50;15.98;;;14.10;99.90;;;;;;5038489;28;39210;-79
2021/09/14 03:40:35;;;;;;;22.52;14.75;;;14.10;99.90;;;;;;5039864;28;38257;-79
2021/09/14 03:43:01;;;;;;;21.08;15.05;;;14.10;99.90;;;;;;5023785;28;36616;-79
2021/09/14 03:45:28;;;;;;;19.25;14.38;;;14.10;99.90;;;;;;5012526;28;37760;-78
2021/09/14 03:47:54;;;;;;;19.67;14.52;;;14.00;99.90;;;;;;5018146;28;37689;-79
2021/09/14 03:50:20;;;;;;;21.33;14.73;;;14.00;99.90;;;;;;5014662;28;38136;-79
2021/09/14 03:52:46;;;;;;;21.08;14.95;;;14.00;99.90;;;;;;5036933;28;37901;-79
2021/09/14 03:55:12;;;;;;;22.35;15.77;;;14.00;99.90;;;;;;5034072;28;38165;-79
2021/09/14 03:57:38;;;;;;;19.27;13.98;;;14.10;99.90;;;;;;5022320;28;37990;-79
2021/09/14 04:00:06;;;;;;;25.38;14.50;;;14.10;99.90;;;;;;5022590;28;37742;-79
2021/09/14 04:05:24;;;;;;;21.13;14.55;;;14.10;99.90;;;;;;5039504;28;40858;-78
2021/09/14 04:10:56;;;;;;;17.08;14.77;;;14.10;99.90;;;;;;4921222;28;49233;-79
2021/09/14 04:13:23;;;;;;;21.75;13.77;;;14.10;99.90;;;;;;5022550;28;38687;-79
2021/09/14 04:15:49;;;;;;;20.25;15.15;;;14.00;99.90;;;;;;5023899;28;37643;-79
2021/09/14 04:18:15;;;;;;;21.67;14.07;;;14.00;99.90;;;;;;5041016;28;38335;-79
2021/09/14 04:20:41;;;;;;;19.13;14.70;;;14.00;99.90;;;;;;5023583;28;38687;-79
2021/09/14 04:23:07;;;;;;;19.38;14.88;;;14.00;99.90;;;;;;5026562;28;36606;-79
2021/09/14 04:25:33;;;;;;;20.38;14.13;;;14.00;99.90;;;;;;5025935;28;37832;-79
2021/09/14 04:27:59;;;;;;;23.58;15.45;;;14.00;99.90;;;;;;5027010;28;38654;-79
2021/09/14 04:30:25;;;;;;;24.02;14.90;;;14.00;99.90;;;;;;5016153;28;39355;-79
2021/09/14 04:32:51;;;;;;;24.00;15.68;;;13.90;99.90;;;;;;5025997;28;37371;-80
2021/09/14 04:35:17;;;;;;;22.30;15.15;;;14.00;99.90;;;;;;5017748;28;37491;-79
2021/09/14 04:37:43;;;;;;;22.45;16.48;;;14.00;99.90;;;;;;5023634;28;39084;-78
2021/09/14 04:40:10;;;;;;;20.25;14.68;;;14.00;99.90;;;;;;5022539;28;38656;-78
2021/09/14 04:42:36;;;;;;;18.58;14.60;;;14.00;99.90;;;;;;5020050;28;37322;-78
2021/09/14 04:45:02;;;;;;;19.52;14.93;;;13.90;99.90;;;;;;5017515;28;39163;-78
2021/09/14 04:47:28;;;;;;;18.83;14.70;;;13.90;99.90;;;;;;5033369;28;47333;-78
2021/09/14 04:49:55;;;;;;;21.58;15.73;;;13.90;99.90;;;;;;5019042;28;37923;-78
2021/09/14 04:52:21;;;;;;;22.48;14.93;;;13.90;99.90;;;;;;5017255;28;37380;-78
2021/09/14 04:54:47;;;;;;;21.33;14.48;;;13.90;99.90;;;;;;5018203;28;37714;-78
2021/09/14 04:57:13;;;;;;;22.98;15.00;;;13.90;99.90;;;;;;5020872;28;38535;-78
2021/09/14 04:59:39;;;;;;;19.05;15.02;;;13.90;99.90;;;;;;5024903;28;38812;-78
2021/09/14 05:02:05;;;;;;;20.08;14.80;;;13.90;99.90;;;;;;5017638;28;38162;-78
2021/09/14 05:04:31;;;;;;;27.60;16.73;;;13.90;99.90;;;;;;5023035;28;39098;-78
2021/09/14 05:06:57;;;;;;;20.67;14.70;;;13.90;99.90;;;;;;5019164;28;38955;-79
2021/09/14 05:09:23;;;;;;;22.67;16.55;;;13.90;99.90;;;;;;5023008;28;35766;-78
2021/09/14 05:11:50;;;;;;;22.13;16.45;;;13.90;99.90;;;;;;5021516;28;38060;-80
2021/09/14 05:14:16;;;;;;;21.15;16.17;;;13.90;99.90;;;;;;5021597;28;39244;-79
2021/09/14 05:16:42;;;;;;;21.55;15.00;;;13.90;99.90;;;;;;5019945;28;38082;-80
2021/09/14 05:19:09;;;;;;;19.15;15.20;;;13.90;99.90;;;;;;5017639;28;38670;-80
2021/09/14 05:21:45;;;;;;;22.27;15.65;;;13.90;99.90;;;;;;5016426;28;37961;-81
2021/09/14 05:24:11;;;;;;;19.15;14.38;;;13.90;99.90;;;;;;5019952;28;41534;-80
2021/09/14 05:26:39;;;;;;;23.35;15.88;;;13.90;99.90;;;;;;5021263;28;39287;-80
2021/09/14 05:29:05;;;;;;;20.23;15.05;;;13.90;99.90;;;;;;5020181;28;38018;-80
2021/09/14 05:31:34;;;;;;;21.30;15.23;;;13.90;99.90;;;;;;5039813;28;36428;-80
2021/09/14 05:34:00;;;;;;;23.85;15.98;;;13.90;99.90;;;;;;5024527;28;38002;-80
2021/09/14 05:36:26;;;;;;;21.60;16.10;;;13.90;99.90;;;;;;5032720;28;47779;-80
2021/09/14 05:38:53;;;;;;;20.85;14.60;;;13.90;99.90;;;;;;5024539;28;39253;-81
2021/09/14 05:41:19;;;;;;;21.67;15.55;;;14.00;99.90;;;;;;5024884;28;37694;-80
2021/09/14 05:43:45;;;;;;;26.73;16.55;;;14.00;99.90;;;;;;5043264;28;38704;-80
2021/09/14 05:46:11;;;;;;;21.55;15.80;;;14.00;99.90;;;;;;5044970;28;38392;-80
2021/09/14 05:48:37;;;;;;;25.60;16.40;;;14.00;99.90;;;;;;5026763;28;38910;-81
2021/09/14 05:51:03;;;;;;;21.30;15.52;;;14.10;99.90;;;;;;5045794;28;37572;-80
2021/09/14 05:53:29;;;;;;;20.90;15.48;;;14.10;99.90;;;;;;5026207;28;38281;-80
2021/09/14 05:55:55;;;;;;;19.48;14.90;;;14.10;99.90;;;;;;5040701;28;38591;-81
2021/09/14 05:58:21;;;;;;;23.90;15.23;;;14.10;99.90;;;;;;5040013;28;38803;-80
2021/09/14 06:00:47;;;;;;;24.73;15.75;;;14.10;99.90;;;;;;5019463;28;38339;-80
2021/09/14 06:03:13;;;;;;;19.83;15.60;;;14.10;99.90;;;;;;5018927;28;39330;-79
2021/09/14 06:05:40;;;;;;;21.92;16.23;;;14.10;99.90;;;;;;5014670;28;38813;-80
2021/09/14 06:08:07;;;;;;;25.05;16.38;;;14.20;99.90;;;;;;5009113;28;38549;-80
2021/09/14 06:10:33;;;;;;;22.10;15.48;;;14.20;99.90;;;;;;5016410;28;37619;-80
2021/09/14 06:12:59;;;;;;;20.00;15.20;;;14.20;99.90;;;;;;5011953;28;39888;-80
2021/09/14 06:15:25;;;;;;;24.10;16.20;;;14.20;99.90;;;;;;5019552;28;37165;-80
2021/09/14 06:17:51;;;;;;;21.27;15.40;;;14.20;99.90;;;;;;5027709;28;39481;-80
2021/09/14 06:20:17;;;;;;;23.63;16.90;;;14.30;99.90;;;;;;5046662;28;37739;-80
2021/09/14 06:22:43;;;;;;;23.92;16.85;;;14.30;99.90;;;;;;5027065;28;39554;-80
2021/09/14 06:25:10;;;;;;;27.45;16.98;;;14.30;99.90;;;;;;5033572;28;39171;-79
2021/09/14 06:27:36;;;;;;;21.45;16.88;;;14.40;99.90;;;;;;5036985;28;39728;-80
2021/09/14 06:30:02;;;;;;;22.38;17.08;;;14.40;99.90;;;;;;5047210;28;37939;-80
2021/09/14 06:32:28;;;;;;;22.73;16.20;;;14.50;99.90;;;;;;5027447;28;46954;-80
2021/09/14 06:34:54;;;;;;;23.45;17.45;;;14.60;99.90;;;;;;5042245;28;38509;-80
2021/09/14 06:37:20;;;;;;;23.60;16.67;;;14.60;99.90;;;;;;5037743;28;38558;-79
2021/09/14 06:39:46;;;;;;;21.90;17.13;;;14.60;99.90;;;;;;5028273;28;36977;-80
2021/09/14 06:42:12;;;;;;;23.77;16.88;;;14.70;99.90;;;;;;5030766;28;39052;-79
2021/09/14 06:44:38;;;;;;;23.88;18.10;;;14.70;99.90;;;;;;5046078;28;38513;-80
2021/09/14 06:47:04;;;;;;;22.52;17.08;;;14.70;99.90;;;;;;5037825;28;38366;-80
2021/09/14 06:49:31;;;;;;;24.55;17.92;;;14.80;99.90;;;;;;5045123;28;41360;-79
2021/09/14 06:51:57;;;;;;;24.48;17.48;;;14.90;99.90;;;;;;5026791;28;39689;-79
2021/09/14 06:54:23;;;;;;;24.60;17.83;;;14.90;99.90;;;;;;5045897;28;39141;-79
2021/09/14 06:56:50;;;;;;;24.67;17.27;;;14.90;99.90;;;;;;5046313;28;39255;-80
2021/09/14 06:59:16;;;;;;;25.63;16.92;;;14.90;99.90;;;;;;5027201;28;38008;-80
2021/09/14 07:01:42;;;;;;;23.80;17.42;;;14.90;99.90;;;;;;5045051;28;38557;-79
2021/09/14 07:04:08;;;;;;;24.92;17.38;;;14.90;99.90;;;;;;5025535;28;39116;-79
2021/09/14 07:06:34;;;;;;;22.08;17.42;;;14.90;99.90;;;;;;5039839;28;39152;-81
2021/09/14 07:09:01;;;;;;;21.08;16.23;;;15.00;99.90;;;;;;5047464;28;38479;-80
2021/09/14 07:11:27;;;;;;;27.67;18.00;;;15.00;99.90;;;;;;5034911;28;48446;-79
2021/09/14 07:13:53;;;;;;;25.52;17.88;;;15.00;99.90;;;;;;5027622;28;38300;-79
2021/09/14 07:16:19;;;;;;;24.50;18.20;;;15.10;99.90;;;;;;5023191;28;37620;-80
2021/09/14 07:18:46;;;;;;;25.45;19.10;;;15.10;99.90;;;;;;5028124;28;38596;-79
2021/09/14 07:21:13;;;;;;;26.48;17.95;;;15.20;99.90;;;;;;5039867;28;40417;-79
2021/09/14 07:23:39;;;;;;;25.60;18.65;;;15.20;99.90;;;;;;5045156;28;38164;-79
2021/09/14 07:26:05;;;;;;;27.35;20.30;;;15.30;99.90;;;;;;5037357;28;38098;-79
2021/09/14 07:28:31;;;;;;;25.70;19.00;;;15.40;99.90;;;;;;5041174;28;37288;-80
2021/09/14 07:30:57;;;;;;;26.10;18.00;;;15.50;99.90;;;;;;5044002;28;38703;-79
2021/09/14 07:33:23;;;;;;;23.75;18.23;;;15.40;99.90;;;;;;5037226;28;37254;-80
2021/09/14 07:35:49;;;;;;;26.88;17.88;;;15.50;99.90;;;;;;5042506;28;39159;-80
2021/09/14 07:38:16;;;;;;;25.73;19.17;;;15.60;99.90;;;;;;5040498;28;37454;-81
2021/09/14 07:40:42;;;;;;;24.88;19.08;;;15.70;99.90;;;;;;5022694;28;39511;-80
2021/09/14 07:43:08;;;;;;;26.85;18.83;;;15.90;99.90;;;;;;5044103;28;37571;-80
2021/09/14 07:45:34;;;;;;;25.98;18.42;;;16.00;99.90;;;;;;5044350;28;37850;-80
2021/09/14 07:48:00;;;;;;;22.52;18.02;;;16.10;99.90;;;;;;5019850;28;38457;-79
2021/09/14 07:50:26;;;;;;;23.52;17.00;;;16.30;99.90;;;;;;5033470;28;38612;-79
2021/09/14 07:52:52;;;;;;;23.83;18.92;;;16.40;99.90;;;;;;5038709;28;38610;-79
2021/09/14 07:55:19;;;;;;;24.63;18.15;;;16.60;99.90;;;;;;5038176;28;38563;-79
2021/09/14 07:57:46;;;;;;;22.77;17.92;;;16.70;99.90;;;;;;5043460;28;37588;-81
2021/09/14 08:00:12;;;;;;;26.88;19.00;;;16.70;99.90;;;;;;5040040;28;39685;-79
2021/09/14 08:02:39;;;;;;;28.58;18.30;;;16.80;99.90;;;;;;5022108;28;39566;-79
2021/09/14 08:05:06;;;;;;;26.00;17.83;;;16.90;99.90;;;;;;5040406;28;39033;-78
2021/09/14 08:07:32;;;;;;;21.15;17.17;;;17.10;99.90;;;;;;5026564;28;36151;-78
2021/09/14 08:09:58;;;;;;;22.60;17.35;;;17.30;99.90;;;;;;5042801;28;39384;-79
2021/09/14 08:12:24;;;;;;;21.08;15.85;;;17.40;99.90;;;;;;5036926;28;38237;-79
2021/09/14 08:14:50;;;;;;;22.67;17.02;;;17.40;99.90;;;;;;5044334;28;38063;-79
2021/09/14 08:17:16;;;;;;;20.90;15.25;;;17.60;99.90;;;;;;5017978;28;38456;-79
2021/09/14 08:19:43;;;;;;;23.75;18.15;;;17.60;99.90;;;;;;5040087;28;38465;-80
2021/09/14 08:22:10;;;;;;;21.85;17.33;;;17.70;99.90;;;;;;5021547;28;38531;-79
2021/09/14 08:24:37;;;;;;;20.80;17.02;;;17.80;99.90;;;;;;5036303;28;39220;-79
2021/09/14 08:27:04;;;;;;;19.65;15.82;;;17.90;99.90;;;;;;5024418;28;38099;-79
2021/09/14 08:29:30;;;;;;;19.73;15.05;;;18.20;99.90;;;;;;5024178;28;39044;-79
2021/09/14 08:31:57;;;;;;;19.25;15.82;;;18.50;99.90;;;;;;5021743;28;38626;-79
2021/09/14 08:34:23;;;;;;;19.20;16.33;;;18.50;99.90;;;;;;5026134;28;38868;-79
2021/09/14 08:36:50;;;;;;;22.20;16.00;;;18.30;99.90;;;;;;5025235;28;37596;-80
2021/09/14 08:39:16;;;;;;;19.17;15.55;;;18.20;99.90;;;;;;5043194;28;39148;-79
2021/09/14 08:41:44;;;;;;;21.73;15.60;;;18.40;99.90;;;;;;5042812;28;39176;-79
2021/09/14 08:44:11;;;;;;;17.73;14.15;;;18.60;99.90;;;;;;5038735;28;39808;-79
2021/09/14 08:46:37;;;;;;;17.08;15.00;;;18.90;99.90;;;;;;5038672;28;37386;-79
2021/09/14 08:49:03;;;;;;;19.10;14.55;;;19.00;99.90;;;;;;5023699;28;39838;-79
2021/09/14 08:51:30;;;;;;;23.23;16.48;;;19.20;99.90;;;;;;5047474;28;38626;-79
2021/09/14 08:53:56;;;;;;;18.52;14.80;;;19.40;99.90;;;;;;5048489;28;38935;-79
2021/09/14 08:56:22;;;;;;;16.85;14.30;;;19.40;99.90;;;;;;5028241;28;38763;-79
2021/09/14 08:58:59;;;;;;;20.27;15.57;;;19.70;99.90;;;;;;5019644;28;39316;-79
2021/09/14 09:01:26;;;;;;;16.33;14.25;;;19.70;99.90;;;;;;5017273;28;38547;-79
2021/09/14 09:04:05;;;;;;;20.13;14.70;;;19.60;99.90;;;;;;5049783;28;39406;-79
2021/09/14 09:06:36;;;;;;;20.33;14.45;;;19.60;99.90;;;;;;5036318;28;48780;-79
2021/09/14 09:09:08;;;;;;;16.00;13.52;;;19.80;99.90;;;;;;5048291;28;39179;-79
2021/09/14 09:11:34;;;;;;;15.35;13.70;;;20.00;99.90;;;;;;5029742;28;37313;-79
2021/09/14 09:14:00;;;;;;;16.52;12.90;;;20.20;99.90;;;;;;5027591;28;38871;-79
2021/09/14 09:16:28;;;;;;;18.83;13.57;;;20.40;99.90;;;;;;5046864;28;47011;-79
2021/09/14 09:18:59;;;;;;;21.60;14.38;;;20.50;99.90;;;;;;5047725;28;39457;-80
2021/09/14 09:21:28;;;;;;;17.80;13.57;;;20.50;99.90;;;;;;5031684;28;38006;-80
2021/09/14 09:23:59;;;;;;;14.38;12.00;;;20.40;99.90;;;;;;5042659;28;38268;-79
2021/09/14 09:26:55;;;;;;;15.52;12.00;;;20.40;99.90;;;;;;5030064;28;38243;-79
2021/09/14 09:29:26;;;;;;;16.88;12.57;;;20.50;99.90;;;;;;5009590;28;39700;-79
2021/09/14 09:31:52;;;;;;;13.82;10.88;;;20.50;99.90;;;;;;5009936;28;39202;-79
2021/09/14 09:34:28;;;;;;;15.77;12.82;;;20.70;99.90;;;;;;5038875;28;38294;-79
2021/09/14 09:37:05;;;;;;;14.25;10.82;;;20.90;99.90;;;;;;5047733;28;37269;-79
2021/09/14 09:39:52;;;;;;;17.08;10.73;;;20.90;99.90;;;;;;5028810;28;48750;-78
2021/09/14 09:42:20;;;;;;;14.98;11.00;;;21.20;99.90;;;;;;5041002;28;39882;-78
2021/09/14 09:44:58;;;;;;;11.95;10.15;;;21.40;99.90;;;;;;5045180;28;38262;-78
2021/09/14 09:47:25;;;;;;;11.85;9.45;;;21.70;99.90;;;;;;5024462;28;37477;-78
2021/09/14 09:49:52;;;;;;;13.02;10.38;;;21.90;99.90;;;;;;5031478;28;39238;-79
2021/09/14 09:52:20;;;;;;;14.45;10.02;;;22.20;99.90;;;;;;5048463;28;38496;-79
2021/09/14 09:54:46;;;;;;;11.05;9.02;;;22.10;99.90;;;;;;5048816;28;38506;-79
2021/09/14 09:57:13;;;;;;;10.48;9.18;;;22.00;99.90;;;;;;5036654;28;37352;-80
2021/09/14 09:59:39;;;;;;;11.90;8.65;;;22.10;99.90;;;;;;5031356;28;39368;-79
2021/09/14 10:02:26;;;;;;;11.07;9.10;;;22.10;99.90;;;;;;5047575;28;39138;-79
2021/09/14 10:05:14;;;;;;;11.00;9.02;;;22.20;99.90;;;;;;5026657;28;39710;-80
2021/09/14 10:07:43;;;;;;;12.18;10.15;;;22.40;99.90;;;;;;4966173;28;47152;-80
2021/09/14 10:10:10;;;;;;;12.48;9.32;;;22.10;99.90;;;;;;4985282;28;38489;-79
2021/09/14 10:12:36;;;;;;;11.38;8.88;;;22.20;99.90;;;;;;4979539;28;38058;-79
2021/09/14 10:15:09;;;;;;;12.68;9.48;;;22.20;99.90;;;;;;5025812;28;39526;-79
2021/09/14 10:17:55;;;;;;;10.85;9.23;;;22.20;99.90;;;;;;5042964;28;49106;-80
2021/09/14 10:20:25;;;;;;;10.23;9.15;;;22.50;99.90;;;;;;5030199;28;39162;-79
2021/09/14 10:23:05;;;;;;;12.25;10.07;;;22.60;99.90;;;;;;5037502;28;39925;-79
2021/09/14 10:25:32;;;;;;;12.15;10.75;;;22.70;99.90;;;;;;5044622;28;48990;-80
2021/09/14 10:28:10;;;;;;;14.27;10.50;;;22.40;99.90;;;;;;5027084;28;39031;-80
2021/09/14 10:30:38;;;;;;;12.90;11.20;;;22.50;99.90;;;;;;5017704;28;47204;-79
2021/09/14 10:33:05;;;;;;;12.77;10.35;;;22.50;99.90;;;;;;5040928;28;38749;-80
2021/09/14 10:35:41;;;;;;;13.93;10.65;;;22.70;99.90;;;;;;5011074;28;39450;-79
2021/09/14 10:38:12;;;;;;;12.02;10.80;;;22.80;99.90;;;;;;5014548;28;36331;-79
2021/09/14 10:40:50;;;;;;;13.70;11.57;;;22.90;99.90;;;;;;5010931;28;39352;-80
2021/09/14 10:43:22;;;;;;;11.68;10.43;;;23.00;99.90;;;;;;5022576;28;39786;-80
2021/09/14 10:45:49;;;;;;;12.80;9.95;;;23.10;99.90;;;;;;5045808;28;39866;-80
2021/09/14 10:48:20;;;;;;;14.73;11.70;;;23.40;99.90;;;;;;5049600;28;37597;-80
2021/09/14 10:50:46;;;;;;;14.40;10.98;;;23.50;99.90;;;;;;5027047;28;39449;-80
2021/09/14 10:53:26;;;;;;;13.43;11.95;;;23.60;99.90;;;;;;5026821;28;38236;-80
2021/09/14 10:55:54;;;;;;;13.23;10.75;;;23.30;99.90;;;;;;5040668;28;38193;-79
2021/09/14 10:58:20;;;;;;;12.55;11.00;;;23.40;99.90;;;;;;5038393;28;37324;-79
2021/09/14 11:00:49;;;;;;;14.30;11.75;;;23.70;99.90;;;;;;5047768;28;39032;-80
2021/09/14 11:03:17;;;;;;;17.02;12.48;;;23.60;99.90;;;;;;5028301;28;38797;-80
2021/09/14 11:05:50;;;;;;;17.25;12.25;;;23.50;99.90;;;;;;5028315;28;38598;-80
2021/09/14 11:08:21;;;;;;;12.63;10.43;;;23.50;99.90;;;;;;5020152;28;37838;-79
2021/09/14 11:10:48;;;;;;;13.52;11.50;;;23.60;99.90;;;;;;5021644;28;40867;-78
2021/09/14 11:13:21;;;;;;;14.32;11.35;;;23.60;99.90;;;;;;5025008;28;40264;-79
2021/09/14 11:15:48;;;;;;;15.77;12.25;;;23.70;99.90;;;;;;5031628;28;37205;-80
2021/09/14 11:18:22;;;;;;;16.88;12.10;;;23.90;99.90;;;;;;5047933;28;37298;-81
2021/09/14 11:20:48;;;;;;;11.82;10.35;;;24.10;99.90;;;;;;5029890;28;39288;-80
2021/09/14 11:23:22;;;;;;;13.18;10.52;;;24.20;99.90;;;;;;5034136;28;36715;-79
2021/09/14 11:25:48;;;;;;;12.00;10.25;;;24.10;99.90;;;;;;5010195;28;38688;-80
2021/09/14 11:28:17;;;;;;;15.00;10.65;;;24.10;99.90;;;;;;5026951;28;38007;-80
2021/09/14 11:30:52;;;;;;;12.38;10.52;;;24.10;99.90;;;;;;5011286;28;39501;-80
2021/09/14 11:33:19;;;;;;;11.93;10.15;;;24.20;99.90;;;;;;5020110;28;40001;-80
2021/09/14 11:35:45;;;;;;;12.95;10.93;;;24.50;99.90;;;;;;5047043;28;38024;-80
2021/09/14 11:38:14;;;;;;;12.52;10.85;;;24.60;99.90;;;;;;5038463;28;37514;-80
2021/09/14 11:40:57;;;;;;;12.35;9.82;;;24.50;99.90;;;;;;5025175;28;40562;-80
2021/09/14 11:43:29;;;;;;;10.77;9.32;;;24.60;99.90;;;;;;5039861;28;38051;-80
2021/09/14 11:45:59;;;;;;;14.23;9.43;;;24.60;99.90;;;;;;5024928;28;39078;-80
2021/09/14 11:48:30;;;;;;;9.10;8.18;;;24.60;99.90;;;;;;5046440;28;37360;-80
2021/09/14 11:51:10;;;;;;;10.18;8.15;;;24.70;99.90;;;;;;5027407;28;39489;-80
2021/09/14 11:53:46;;;;;;;12.82;8.68;;;24.90;99.90;;;;;;5043534;28;48891;-80
2021/09/14 11:56:15;;;;;;;12.13;7.80;;;24.90;99.90;;;;;;5021795;28;37530;-79
2021/09/14 11:58:44;;;;;;;10.63;8.45;;;24.80;99.90;;;;;;5027379;28;37455;-80
2021/09/14 12:01:11;;;;;;;9.25;7.97;;;24.50;99.90;;;;;;5039949;28;39343;-80
2021/09/14 12:03:46;;;;;;;9.05;8.15;;;24.30;99.90;;;;;;5028316;28;38819;-80
2021/09/14 12:06:20;;;;;;;9.80;7.82;;;24.10;99.90;;;;;;5042783;28;38952;-80
2021/09/14 12:08:46;;;;;;;10.70;8.20;;;24.10;99.90;;;;;;5046530;28;40075;-80
2021/09/14 12:11:27;;;;;;;8.38;7.53;;;24.10;99.90;;;;;;5039133;28;39724;-81
2021/09/14 12:14:04;;;;;;;11.95;8.00;;;23.90;99.90;;;;;;5046078;28;38657;-80
2021/09/14 12:16:36;;;;;;;9.68;8.60;;;23.80;99.90;;;;;;5024364;28;47415;-81
2021/09/14 12:19:02;;;;;;;9.77;8.45;;;23.80;99.90;;;;;;5046634;28;37396;-82
2021/09/14 12:21:28;;;;;;;11.40;9.85;;;23.70;99.90;;;;;;5041939;28;38933;-80
2021/09/14 12:23:56;;;;;;;10.43;8.07;;;23.60;99.90;;;;;;5041861;28;38520;-80
2021/09/14 12:26:24;;;;;;;14.82;9.77;;;23.40;99.90;;;;;;5048030;28;39062;-80
2021/09/14 12:28:53;;;;;;;10.35;7.63;;;23.10;99.90;;;;;;5048142;28;36712;-80
2021/09/14 12:31:19;;;;;;;11.52;8.82;;;23.10;99.90;;;;;;5026822;28;39779;-80
2021/09/14 12:33:46;;;;;;;11.95;8.95;;;23.20;99.90;;;;;;5050884;28;38557;-80
2021/09/14 12:36:13;;;;;;;8.68;7.68;;;23.00;99.90;;;;;;5043793;28;39303;-81
2021/09/14 12:38:40;;;;;;;12.82;8.13;;;22.90;99.90;;;;;;5032476;28;37401;-80
2021/09/14 12:41:07;;;;;;;13.05;8.95;;;23.00;99.90;;;;;;5047387;28;39286;-80
2021/09/14 12:43:33;;;;;;;9.80;8.15;;;22.90;99.90;;;;;;5046463;28;38045;-80
2021/09/14 12:46:00;;;;;;;13.77;8.65;;;23.00;99.90;;;;;;5029693;28;38062;-80
2021/09/14 12:48:26;;;;;;;9.68;8.15;;;23.00;99.90;;;;;;5048231;28;38144;-79
2021/09/14 12:50:52;;;;;;;11.77;8.52;;;23.00;99.90;;;;;;5049753;28;40236;-80
2021/09/14 12:53:18;;;;;;;11.60;8.65;;;22.90;99.90;;;;;;5044910;28;37963;-80
2021/09/14 12:55:44;;;;;;;12.10;9.68;;;23.00;99.90;;;;;;5040061;28;37851;-80
2021/09/14 12:58:10;;;;;;;11.82;9.85;;;22.90;99.90;;;;;;5036472;28;37113;-80
2021/09/14 13:00:38;;;;;;;10.10;8.93;;;22.70;99.90;;;;;;5050355;28;39958;-80
2021/09/14 13:03:04;;;;;;;15.27;9.85;;;22.70;99.90;;;;;;5047593;28;39356;-79
2021/09/14 13:05:32;;;;;;;16.80;10.52;;;22.70;99.90;;;;;;5029362;28;38622;-80
2021/09/14 13:07:58;;;;;;;13.52;10.20;;;22.60;99.90;;;;;;5051171;28;37681;-81
2021/09/14 13:10:25;;;;;;;12.25;10.65;;;22.60;99.90;;;;;;5027957;28;37780;-80
2021/09/14 13:18:23;;;;;;;12.45;10.30;;;22.50;99.90;;;;;;5029161;28;38629;-80
2021/09/14 13:20:50;;;;;;;11.85;10.45;;;22.40;99.90;;;;;;5024968;28;37562;-80
2021/09/14 13:23:17;;;;;;;13.30;11.23;;;22.40;99.90;;;;;;5026012;28;38811;-81
2021/09/14 13:25:43;;;;;;;14.07;10.82;;;22.20;99.90;;;;;;5045009;28;38088;-80
2021/09/14 13:28:09;;;;;;;13.32;10.93;;;22.20;99.90;;;;;;5046656;28;38274;-81
2021/09/14 13:30:35;;;;;;;16.85;12.82;;;22.20;99.90;;;;;;5029152;28;39254;-81